PostFrontal Forum
PostFrontal Forum
PF Home | International_Forum | Profile | Register | Active Topics | Members | Search | FAQ | Upload image
Username:
Password:
Save Password
Forgot your Password?

 All Forums
 LK8000 International Support
 Deutschsprachige Ecke
 Nicht erkanntes Flarm im LX5K_R Datenstrom
 New Topic  Reply to Topic
Author  Topic Next Topic  

ka_flieger
Pulcino

Germany
14 Posts

Posted - 23/10/2016 :  17:45:31  Show Profile  Reply with Quote
Hallo zusammen, meinen LK8000 Installationen ist es nicht gelungen die vom LX5000R durchgeschleiften $PFLAx Daten zu erkennen und die mit Flarm-Daten zusammenhängenden Info Seiten freizugeben. Könnte das mit dem fehlenden $GPRMZ zusammenhängen? - Grundsätzlich muss das ja eigentlich möglich sein, weil GPSlog mit den gleichen Daten auf Flarm in Reichweite reagiert.
Gruß
Reinhard

AlphaLima
Moderator

Germany
1300 Posts

Posted - 25/10/2016 :  21:45:39  Show Profile  Visit AlphaLima's Homepage  Reply with Quote
Hallo Reinhard,
das sind recht wenig Infos, daher ein Paar Fragen:
Welchen PNA nutzt du?
Welchen Treiber nutzt du?
Welche LK Version nutzt du?
Wie ist der PNA angebunden?
LX5000R->LK8000 Baudrate >= 19200Bd?
COM und Baudrate richtig eingestellt?
NMEA Daten + $PFLA im Terminal Fenster sichtbar?
Bekommst du die GPS Position wirklich vom LX5000 (und nicht evtl. vom internen GPS Fallback)?
Ohne $GPRMZ (= Höhe) müsste LK zwar theoretisch funktionieren, aber ohne Höhe macht eine Flugcomputer keinen Sinn. Warum fehlen die $GPRMZ Sätze?
Am Besten du loggst mal den NMEA Stream und postest den. (Config 2/3 - NMEA Logger, die Text-Logfiles findest du im _Logger Verzeichnis und hat das Format NMEA??????.txt)
Gruß
AL

Edited by - AlphaLima on 25/10/2016 23:03:51
Go to Top of Page

AlphaLima
Moderator

Germany
1300 Posts

Posted - 25/10/2016 :  23:13:23  Show Profile  Visit AlphaLima's Homepage  Reply with Quote
Nur zur Info:
Die Flarm Detektion läuft über die $PFLAU Datensätze.
Go to Top of Page

ka_flieger
Pulcino

Germany
14 Posts

Posted - 26/10/2016 :  12:52:41  Show Profile  Reply with Quote
Hallo AL,
.
.
Hallo Reinhard,
das sind recht wenig Infos, daher ein Paar Fragen:
Welchen PNA nutzt du? ---HP314, Mio400, IPAQ3650, 3850, 3870, 3970
Welchen Treiber nutzt du? ---generic und alles was sich wie LX las
Welche LK Version nutzt du? ---die letzten jeweils auf den Geräten lauffähigen Versionen
Wie ist der PNA angebunden? ---am PDA/PNA Ausgang vom LX5000R (entspr. LX7007C)- keine Flarmerkennung durch LK8K (jedoch durch GPS_log und XCS), direkt am Flarm funktionierts
LX5000R->LK8000 Baudrate >= 19200Bd?---richtig
COM und Baudrate richtig eingestellt---ja
NMEA Daten + $PFLA im Terminal Fenster sichtbar?---ja
Bekommst du die GPS Position wirklich vom LX5000 (und nicht evtl. vom internen GPS Fallback)? ---ja, bei den PDA´s gibt´s kein GPS
Ohne $GPRMZ (= Höhe) müsste LK zwar theoretisch funktionieren, aber ohne Höhe macht eine Flugcomputer keinen Sinn. Warum fehlen die $GPRMZ Sätze? ---Die Barohöhe kommt aus dem WP Datensatz des LK5000R
Am Besten du loggst mal den NMEA Stream und postest den. (Config 2/3 - NMEA Logger, die Text-Logfiles findest du im _Logger Verzeichnis und hat das Format NMEA??????.txt) -- --das probier ich wenn ich mal wieder am Flieger bin.

Danke für das Interesse
Reinhard
Go to Top of Page

AlphaLima
Moderator

Germany
1300 Posts

Posted - 26/10/2016 :  16:16:50  Show Profile  Visit AlphaLima's Homepage  Reply with Quote
quote:
Originally posted by ka_flieger
$GPRMZ Sätze? ---Die Barohöhe kommt aus dem WP Datensatz des LK5000R





Nimmt das LX den Datensatz selbst raus?
Kann man das wieder einschalten?
LK hat eine Baro Priorisierung, d.h. bei unterschiedlichen verfügbaren Barohöhen wird die höchst priorisierte genommen. Die allerhöchst priorisierte ist die Flarm Baro Höhe(weil größter gemeinsamer Nenner).
Beim Generic Treiber würde die LX Baro dann auch nicht ausgewerte, da der dafür keine Parser hat, die Flarm Baro schon.

Also Lange Rede kurzer Sinn, LK kommt mit unterschiedlichen Baro-Höhen zur gleichen Zeit zurecht. Ein eigener Mix, kann funktionieren, muss aber nicht!

Das dürfte aber auch nicht das beschriebene Fehlerbild zeigen.
Wenn der fehlende $GPRMZ Datensatz aber wirklich der einzige Unterschied ist, wird es wohl daran liegen.

Schick auch mal bitte das runtime.log. Darin steht dann welche Höhe benutzt wird.


Edited by - AlphaLima on 26/10/2016 16:55:29
Go to Top of Page

ka_flieger
Pulcino

Germany
14 Posts

Posted - 26/10/2016 :  18:35:25  Show Profile  Reply with Quote
Hallo AL,
ich kann im LX5KR nur $PFLAX aktivieren, zusätzlich noch den WP Datensatz, sowie z.B. ..RMC, ..GGA..
siehe folgenden Text, den ich mit einem IPAQ3870 mitPPC2003 LK version 6.0a aufgenommen habe, mit "LX"-Treiber - Ballastveränderungen wurden von LK8K berücksichtigt :-), Flarm leider nicht erkannt. Nach Umschalten auf reines Flarmsignal funktionierten die Flarmfunktionen wie sie sollen.

$LXWP0,N,0.0,0.0,0.00,0.00,0.00,0.00,0.00,0.00,,,179,1.0*51
$PFLAA,0,-48,-12,-32,2,DD8BF6,0,,0,-0.1,1*6e
$PFLAU,1,1,1,1,0,,0,,,*4e
$GPGGA,153051.00,5231.861,N,01035.859,E,1,4,3.2,27,M,,M,,*66
$GPRMC,153051.00,A,5231.861,N,01035.859,E,0.2,0.0,261016,2.6,E*56
$PFLAA,0,-48,-12,-32,2,DD8BF6,0,,0,-0.1,1*6e
$LXWP0,N,0.0,0.0,0.00,0.00,0.00,0.00,0.00,0.00,,,179,1.0*51
$PFLAU,1,1,1,1,0,,0,,,*4e
$GPGGA,153052.00,5231.861,N,01035.859,E,1,4,3.2,26,M,,M,,*64
$GPRMC,153052.00,A,5231.861,N,01035.859,E,1.1,0.0,261016,2.6,E*57
$LXWP0,N,0.0,0.0,-0.01,-0.01,-0.01,-0.01,-0.01,-0.01,,,179,1.1*50
$PFLAA,0,-49,-12,-34,2,DD8BF6,0,,0,0.0,1*45
$PFLAU,1,1,1,1,0,,0,,,*4e
$GPGGA,153053.00,5231.861,N,01035.859,E,1,4,3.2,26,M,,M,,*65
$GPRMC,153053.00,A,5231.861,N,01035.859,E,1.0,0.0,261016,2.6,E*57
$PFLAA,0,-50,-12,-35,2,DD8BF6,0,,0,0.0,1*4c
$LXWP0,N,0.0,0.0,-0.01,0.00,0.00,0.00,-0.01,-0.01,,,179,1.1*7c
$PFLAU,1,1,1,1,0,,0,,,*4e
$GPGGA,153054.00,5231.860,N,01035.860,E,1,4,3.2,24,M,,M,,*6b
$GPRMC,153054.00,A,5231.860,N,01035.860,E,0.7,0.0,261016,2.6,E*5d
$PFLAA,0,-50,-12,-37,2,DD8BF6,0,,0,0.0,1*4e
$LXWP0,N,0.0,0.0,-0.01,-0.01,0.00,0.00,0.00,0.00,,,179,1.1*50
$LXWP2,0.8,1.2,0.0,1.58,-2.21,1.27*3e
$PFLAU,1,1,1,1,0,,0,,,*4e
$GPGGA,153055.00,5231.860,N,01035.860,E,1,4,3.2,24,M,,M,,*6a
$GPRMC,153055.00,A,5231.860,N,01035.860,E,0.9,0.0,261016,2.6,E*52
$LXWP0,N,0.0,0.0,0.00,0.00,0.00,0.00,0.00,0.00,,,179,1.1*50
$PFLAA,0,-51,-12,-39,2,DD8BF6,0,,0,-0.1,1*6d
$PFLAU,1,1,1,1,0,,0,,,*4e
$GPGGA,153056.00,5231.860,N,01035.860,E,1,4,3.2,24,M,,M,,*69
$GPRMC,153056.00,A,5231.860,N,01035.860,E,0.3,0.0,261016,2.6,E*5b
$LXWP0,N,0.0,0.0,0.00,0.00,-0.01,-0.01,-0.01,-0.01,,,179,1.1*50
$PFLAA,0,-50,-12,-38,2,DD8BF6,0,,0,0.0,1*41
$PFLAU,1,1,1,1,0,,0,,,*4e
$GPGGA,153057.00,5231.860,N,01035.860,E,1,4,3.2,25,M,,M,,*69
$GPRMC,153057.00,A,5231.860,N,01035.860,E,0.6,0.0,261016,2.6,E*5f
$PFLAA,0,-50,-11,-38,2,DD8BF6,0,,0,-0.1,1*6e
$LXWP0,N,0.0,0.0,-0.01,-0.01,-0.01,0.00,0.00,0.00,,,179,1.1*7c
$PFLAU,1,1,1,1,0,,0,,,*4e
$GPGGA,153058.00,5231.860,N,01035.860,E,1,4,3.2,24,M,,M,,*67
$GPRMC,153058.00,A,5231.860,N,01035.860,E,0.3,0.0,261016,2.6,E*55
$LXWP0,N,0.0,0.0,0.00,0.00,-0.01,-0.01,-0.01,0.00,,,179,1.1*7c
$PFLAA,0,-50,-11,-38,2,DD8BF6,0,,0,-0.1,1*6e
$PFLAU,1,1,1,1,0,,0,,,*4e
$GPGGA,153059.00,5231.859,N,01035.861,E,1,4,3.2,23,M,,M,,*6a
$GPRMC,153059.00,A,5231.859,N,01035.861,E,0.3,0.0,261016,2.6,E*5f
$PFLAA,0,-50,-11,-37,2,DD8BF6,0,,0,0.0,1*4d
$LXWP0,N,0.0,0.0,-0.01,-0.01,-0.01,0.00,0.00,0.00,,,179,1.1*7c
$LXWP1,14,33164,3.6,0.0*11
$LXWP2,0.7,1.2,0.0,1.58,-2.21,1.27*31
$LXWP3,0,0,1.5,4,0,20,5.0,1.0,1,0,0,,0*25
$PFLAU,1,1,1,1,0,,0,,,*4e
$GPGGA,153100.00,5231.859,N,01035.861,E,1,4,3.2,23,M,,M,,*67
$GPRMC,153100.00,A,5231.859,N,01035.861,E,0.4,0.0,261016,2.6,E*55
$LXWP0,N,0.0,0.0,0.00,0.00,-0.01,-0.01,-0.01,-0.01,,,179,1.0*51
$PFLAA,0,-49,-11,-36,2,DD8BF6,0,,0,0.1,1*45
$PFLAU,1,1,1,1,0,,0,,,*4e
$GPGGA,153101.00,5231.859,N,01035.862,E,1,4,3.2,25,M,,M,,*63
$GPRMC,153101.00,A,5231.859,N,01035.862,E,0.5,0.0,261016,2.6,E*56
$PFLAA,0,-49,-11,-36,2,DD8BF6,0,,0,-0.1,1*68
$LXWP0,N,0.0,0.0,-0.01,-0.01,-0.01,0.00,0.00,0.00,,,179,1.0*7d
$PFLAU,1,1,1,1,0,,0,,,*4e
$PFLAA,0,-49,-11,-36,2,DD8BF6,0,,0,-0.1,1*68
$GPGGA,153102.00,5231.859,N,01035.862,E,1,4,3.2,25,M,,M,,*60
$GPRMC,153102.00,A,5231.859,N,01035.862,E,0.7,0.0,261016,2.6,E*57
$LXWP0,N,0.0,0.0,0.00,-0.01,0.00,0.00,0.00,0.00,,,179,1.1*7c
$PFLAU,1,1,1,1,0,,0,,,*4e
$PFLAA,0,-48,-12,-35,2,DD8BF6,0,,0,0.0,1*45
$GPGGA,153103.00,5231.859,N,01035.863,E,1,4,3.2,26,M,,M,,*63
$GPRMC,153103.00,A,5231.859,N,01035.863,E,1.5,0.0,261016,2.6,E*54
$LXWP0,N,0.0,0.0,0.00,0.00,0.00,0.00,0.00,0.00,,,179,1.1*50
$PFLAU,1,1,1,1,0,,0,,,*4e
$GPGGA,153104.00,5231.859,N,01035.863,E,1,4,3.2,26,M,,M,,*64
$GPRMC,153104.00,A,5231.859,N,01035.863,E,0.7,0.0,261016,2.6,E*50
$PFLAA,0,-47,-12,-35,2,DD8BF6,0,,0,0.0,1*4a
$LXWP0,N,0.0,0.0,0.00,-0.01,-0.01,-0.01,-0.02,-0.02,,,179,1.1*7c
$LXWP2,0.7,1.2,0.0,1.58,-2.21,1.27*31
$PFLAU,1,1,1,1,0,,0,,,*4e
$GPGGA,153105.00,5231.859,N,01035.864,E,1,4,3.2,26,M,,M,,*62
$GPRMC,153105.00,A,5231.859,N,01035.864,E,0.5,0.0,261016,2.6,E*54
$LXWP0,N,0.0,0.0,-0.02,-0.03,-0.03,-0.03,-0.03,-0.03,,,179,1.1*51
$PFLAA,0,-47,-11,-35,2,DD8BF6,0,,0,-0.1,1*65
$PFLAU,1,1,1,1,0,,0,,,*4e
$GPGGA,153106.00,5231.859,N,01035.864,E,1,4,3.2,27,M,,M,,*60
$GPRMC,153106.00,A,5231.859,N,01035.864,E,0.2,0.0,261016,2.6,E*50
$PFLAA,0,-46,-11,-36,2,DD8BF6,0,,0,-0.1,1*67
$LXWP0,N,0.0,0.0,-0.02,-0.02,-0.02,-0.01,-0.01,-0.01,,,179,1.1*53
$PFLAU,1,1,1,1,0,,0,,,*4e
$GPGGA,153107.00,5231.859,N,01035.864,E,1,4,3.2,28,M,,M,,*6e
$GPRMC,153107.00,A,5231.859,N,01035.864,E,0.2,0.0,261016,2.6,E*51
$PFLAA,0,-46,-11,-34,2,DD8BF6,0,,0,0.0,1*49
$LXWP0,N,0.0,0.0,-0.01,0.00,0.00,0.00,0.01,0.01,,,179,1.1*7c
$PFLAU,1,1,1,1,0,,0,,,*4e
$GPGGA,153108.00,5231.859,N,01035.863,E,1,4,3.2,28,M,,M,,*66
$GPRMC,153108.00,A,5231.859,N,01035.863,E,0.7,0.0,261016,2.6,E*5c
$PFLAA,0,-46,-11,-34,2,DD8BF6,0,,0,0.0,1*49
$LXWP0,N,0.0,0.0,0.01,0.01,0.01,0.00,0.00,0.00,,,179,1.1*51
$PFLAU,1,1,1,1,0,,0,,,*4e
$GPGGA,153109.00,5231.859,N,01035.863,E,1,4,3.2,28,M,,M,,*67
$GPRMC,153109.00,A,5231.859,N,01035.863,E,0.4,0.0,261016,2.6,E*5e
$LXWP0,N,0.0,0.0,0.00,0.00,0.00,0.00,0.00,0.00,,,179,1.1*50
$LXWP2,0.0,1.2,0.0,1.58,-2.21,1.27*36
$PFLAA,0,-46,-11,-36,2,DD8BF6,0,,0,-0.1,1*67
$PFLAU,1,1,1,1,0,,0,,,*4e
$GPGGA,153110.00,5231.859,N,01035.864,E,1,4,3.2,28,M,,M,,*68
$GPRMC,153110.00,A,5231.859,N,01035.864,E,0.8,0.0,261016,2.6,E*5d
$PFLAA,0,-47,-11,-36,2,DD8BF6,0,,0,-0.1,1*66
$LXWP0,N,0.0,0.0,0.00,0.01,0.01,0.01,0.01,0.01,,,179,1.1*51
$PFLAU,1,1,1,1,0,,0,,,*4e
$GPGGA,153111.00,5231.858,N,01035.865,E,1,4,3.2,27,M,,M,,*66
$GPRMC,153111.00,A,5231.858,N,01035.865,E,1.1,0.0,261016,2.6,E*54
$PFLAA,0,-47,-11,-37,2,DD8BF6,0,,0,0.0,1*4b
$LXWP0,N,0.0,0.0,0.00,0.00,0.00,0.00,0.00,0.00,,,179,1.1*50
$PFLAU,1,1,1,1,0,,0,,,*4e
$GPGGA,153112.00,5231.859,N,01035.864,E,1,4,3.2,27,M,,M,,*65
$GPRMC,153112.00,A,5231.859,N,01035.864,E,0.1,0.0,261016,2.6,E*56
$PFLAA,0,-47,-12,-37,2,DD8BF6,0,,0,-0.1,1*64
$LXWP0,N,0.0,0.0,0.00,0.00,0.00,0.00,0.00,0.00,,,179,1.1*50
$PFLAU,1,1,1,1,0,,0,,,*4e
$GPGGA,153113.00,5231.858,N,01035.864,E,1,4,3.2,27,M,,M,,*65
$GPRMC,153113.00,A,5231.858,N,01035.864,E,0.3,0.0,261016,2.6,E*54
$LXWP0,N,0.0,0.0,0.00,0.00,-0.01,-0.01,-0.01,-0.01,,,179,1.1*50
$PFLAA,0,-47,-12,-38,2,DD8BF6,0,,0,-0.1,1*6b
$PFLAU,1,1,1,1,0,,0,,,*4e
$GPGGA,153114.00,5231.858,N,01035.863,E,1,4,3.2,26,M,,M,,*64
$GPRMC,153114.00,A,5231.858,N,01035.863,E,1.2,0.0,261016,2.6,E*54
$LXWP0,N,0.0,0.0,0.00,0.00,0.00,0.00,0.00,0.00,,,179,1.1*50
$LXWP2,0.0,1.2,0.0,1.58,-2.21,1.27*36
$PFLAA,0,-48,-12,-39,2,DD8BF6,0,,0,-0.1,1*65
$PFLAU,1,1,1,1,0,,0,,,*4e
$GPGGA,153115.00,5231.858,N,01035.864,E,1,4,3.2,26,M,,M,,*62
$GPRMC,153115.00,A,5231.858,N,01035.864,E,0.6,0.0,261016,2.6,E*57
$PFLAA,0,-48,-12,-40,2,DD8BF6,0,,0,0.0,1*47
$LXWP0,N,0.0,0.0,0.00,0.00,0.00,0.01,0.01,0.01,,,179,1.1*51
$PFLAU,1,1,1,1,0,,0,,,*4e
$GPGGA,153116.00,5231.858,N,01035.864,E,1,4,3.2,26,M,,M,,*61
$GPRMC,153116.00,A,5231.858,N,01035.864,E,0.3,0.0,261016,2.6,E*51
$PFLAA,0,-48,-12,-41,2,DD8BF6,0,,0,0.1,1*47
$LXWP0,N,0.0,0.0,0.01,0.01,0.00,0.00,0.00,0.00,,,179,1.1*50
$PFLAU,1,1,1,1,0,,0,,,*4e
$PFLAA,0,-48,-12,-42,2,DD8BF6,0,,0,-0.1,1*69
$GPGGA,153117.00,5231.858,N,01035.865,E,1,4,3.2,28,M,,M,,*6f
$GPRMC,153117.00,A,5231.858,N,01035.865,E,1.2,0.0,261016,2.6,E*51
$LXWP0,N,0.0,0.0,0.00,0.00,0.00,0.00,0.00,0.00,,,179,1.1*50
$PFLAU,1,1,1,1,0,,0,,,*4e
$PFLAA,0,-49,-12,-43,2,DD8BF6,0,,0,0.0,1*45
$GPGGA,153118.00,5231.858,N,01035.865,E,1,4,3.2,28,M,,M,,*60
$GPRMC,153118.00,A,5231.858,N,01035.865,E,0.1,0.0,261016,2.6,E*5c
$LXWP0,N,0.0,0.0,0.00,0.00,0.00,0.00,0.01,0.02,,,179,1.1*53
$PFLAU,1,1,1,1,0,,0,,,*4e
$GPGGA,153119.00,5231.859,N,01035.865,E,1,4,3.2,29,M,,M,,*61
$GPRMC,153119.00,A,5231.859,N,01035.865,E,0.4,0.0,261016,2.6,E*59
$LXWP0,N,0.0,0.0,0.01,0.00,0.00,0.00,0.00,0.00,,,179,1.1*51
$LXWP2,0.0,1.2,0.0,1.58,-2.21,1.27*36
$PFLAA,0,-50,-12,-44,2,DD8BF6,0,,0,0.0,1*4a
$PFLAU,1,1,1,1,0,,0,,,*4e
$GPGGA,153120.00,5231.858,N,01035.866,E,1,4,3.2,29,M,,M,,*69
$GPRMC,153120.00,A,5231.858,N,01035.866,E,1.5,0.0,261016,2.6,E*51
$PFLAA,0,-50,-12,-46,2,DD8BF6,0,,0,-0.1,1*64
$LXWP0,N,0.0,0.0,0.00,0.00,-0.01,-0.02,-0.02,-0.02,,,179,1.1*53
$PFLAU,1,1,1,1,0,,0,,,*4e
$GPGGA,153121.00,5231.858,N,01035.865,E,1,4,3.2,27,M,,M,,*65
$GPRMC,153121.00,A,5231.858,N,01035.865,E,0.1,0.0,261016,2.6,E*56
$PFLAA,0,-50,-12,-48,2,DD8BF6,0,,0,0.1,1*47
$LXWP0,N,0.0,0.0,-0.03,-0.02,-0.02,-0.02,-0.02,-0.02,,,179,1.1*51
$PFLAU,1,1,1,1,0,,0,,,*4e
$GPGGA,153122.00,5231.858,N,01035.866,E,1,4,3.2,27,M,,M,,*65
$GPRMC,153122.00,A,5231.858,N,01035.866,E,0.6,0.0,261016,2.6,E*51
$PFLAA,0,-51,-12,-49,2,DD8BF6,0,,0,0.0,1*46
$LXWP0,N,0.0,0.0,-0.02,-0.01,-0.01,-0.01,-0.01,-0.01,,,179,1.1*53
$PFLAU,1,1,1,1,0,,0,,,*4e

Gruß
Reinhard


Go to Top of Page

AlphaLima
Moderator

Germany
1300 Posts

Posted - 26/10/2016 :  22:02:47  Show Profile  Visit AlphaLima's Homepage  Reply with Quote
Ups!
Die Datensätze
$PFLAU,1,1,1,1,0,,0,,,*4e
werden wegen falscher Checksumme abgelehnt.
Dies liegt daran, dass das Checksummen als Hex Zahlen übertragen werden.
Das LX5000R benutzt im Hex Format Kleinbuchstaben (4e statt 4E). Dies ist nicht unbedingt falsch aber absolut unüblich.
Das gilt nicht nur für die Flarmdatensätze sondern für alle Datensätze deren hexadzimal Checksummen Buchstaben enthalten. Also bitte auf keinen Fall in der Konfiguration damit fliegen.

Ist bereits für die nächste Version gefixt!
https://github.com/LK8000/LK8000/pull/929

Edited by - AlphaLima on 27/10/2016 08:17:52
Go to Top of Page

AlphaLima
Moderator

Germany
1300 Posts

Posted - 26/10/2016 :  22:07:41  Show Profile  Visit AlphaLima's Homepage  Reply with Quote
In der Zwischenzeit, kannst du als Workarround die Checksummenprüfung abschalten.
entweder in der
Config Page 24 Engineering "NMEA Checksum", deaktivieren
Um diese "Experten" Seite zu aktivieren ggf. auf Config Page 22 "Engineering Menue" aktivieren und neu starten.

oder dazu im File:

_Configuration\DEFAULT_DEVICE.dvc
den Einrag:
CheckSum1=1
auf
CheckSum1=0
ändern.

Edited by - AlphaLima on 27/10/2016 08:15:45
Go to Top of Page

ka_flieger
Pulcino

Germany
14 Posts

Posted - 27/10/2016 :  18:11:39  Show Profile  Reply with Quote
Hallo AL,
mit deinem Workarround wurde Flarm im LX5K_R Datenstrom erkannt.
Klasse gemacht!

Gruß
Reinhard
Go to Top of Page

AlphaLima
Moderator

Germany
1300 Posts

Posted - 17/05/2017 :  15:40:08  Show Profile  Visit AlphaLima's Homepage  Reply with Quote
Seit 6.1e gelöst.
Go to Top of Page
   Topic Next Topic  
 New Topic  Reply to Topic
Jump To:
PostFrontal Forum © PostFrontal - La community del Volo a Vela Go To Top Of Page
This page was generated in 0.16 seconds. Snitz Forums 2000

PostFrontal S.A.S. di Giuliano Golfieri & c. - P.I. 05264240960